sensor_id;sensor_type;location;lat;lon;timestamp;temperature;humidity
14172;DHT22;7165;52.388;4.928;2023-02-11T00:02:18;8.20;99.90
14172;DHT22;7165;52.388;4.928;2023-02-11T00:04:45;8.20;99.90
14172;DHT22;7165;52.388;4.928;2023-02-11T00:07:12;8.20;99.90
14172;DHT22;7165;52.388;4.928;2023-02-11T00:09:40;8.10;99.90
14172;DHT22;7165;52.388;4.928;2023-02-11T00:12:07;8.10;99.90
14172;DHT22;7165;52.388;4.928;2023-02-11T00:14:33;8.10;99.90
14172;DHT22;7165;52.388;4.928;2023-02-11T00:17:00;8.10;99.90
14172;DHT22;7165;52.388;4.928;2023-02-11T00:19:27;8.00;99.90
14172;DHT22;7165;52.388;4.928;2023-02-11T00:21:54;8.00;99.90
14172;DHT22;7165;52.388;4.928;2023-02-11T00:24:21;8.00;99.90
14172;DHT22;7165;52.388;4.928;2023-02-11T00:26:50;8.00;99.90
14172;DHT22;7165;52.388;4.928;2023-02-11T00:29:17;8.10;99.90
14172;DHT22;7165;52.388;4.928;2023-02-11T00:31:44;8.00;99.90
14172;DHT22;7165;52.388;4.928;2023-02-11T00:34:11;8.00;99.90
14172;DHT22;7165;52.388;4.928;2023-02-11T00:37:09;8.00;99.90
14172;DHT22;7165;52.388;4.928;2023-02-11T00:39:39;8.10;99.90
14172;DHT22;7165;52.388;4.928;2023-02-11T00:42:15;8.00;99.90
14172;DHT22;7165;52.388;4.928;2023-02-11T00:44:42;8.00;99.90
14172;DHT22;7165;52.388;4.928;2023-02-11T00:47:08;8.00;99.90
14172;DHT22;7165;52.388;4.928;2023-02-11T00:49:35;8.00;99.90
14172;DHT22;7165;52.388;4.928;2023-02-11T00:52:04;7.90;99.90
14172;DHT22;7165;52.388;4.928;2023-02-11T00:54:30;7.90;99.90
14172;DHT22;7165;52.388;4.928;2023-02-11T00:56:57;7.90;99.90
14172;DHT22;7165;52.388;4.928;2023-02-11T00:59:25;7.90;99.90
14172;DHT22;7165;52.388;4.928;2023-02-11T01:01:52;7.90;99.90
14172;DHT22;7165;52.388;4.928;2023-02-11T01:04:19;7.80;99.90
14172;DHT22;7165;52.388;4.928;2023-02-11T01:06:45;7.80;99.90
14172;DHT22;7165;52.388;4.928;2023-02-11T01:09:12;7.80;99.90
14172;DHT22;7165;52.388;4.928;2023-02-11T01:11:39;7.80;99.90
14172;DHT22;7165;52.388;4.928;2023-02-11T01:17:29;7.80;99.90
14172;DHT22;7165;52.388;4.928;2023-02-11T01:19:55;7.70;99.90
14172;DHT22;7165;52.388;4.928;2023-02-11T01:22:22;7.70;99.90
14172;DHT22;7165;52.388;4.928;2023-02-11T01:24:49;7.70;99.90
14172;DHT22;7165;52.388;4.928;2023-02-11T01:27:16;7.70;99.90
14172;DHT22;7165;52.388;4.928;2023-02-11T01:29:42;7.70;99.90
14172;DHT22;7165;52.388;4.928;2023-02-11T01:32:09;7.70;99.90
14172;DHT22;7165;52.388;4.928;2023-02-11T01:34:37;7.70;99.90
14172;DHT22;7165;52.388;4.928;2023-02-11T01:37:04;7.70;99.90
14172;DHT22;7165;52.388;4.928;2023-02-11T01:39:32;7.70;99.90
14172;DHT22;7165;52.388;4.928;2023-02-11T01:41:59;7.60;99.90
14172;DHT22;7165;52.388;4.928;2023-02-11T01:44:28;7.60;99.90
14172;DHT22;7165;52.388;4.928;2023-02-11T01:46:55;7.60;99.90
14172;DHT22;7165;52.388;4.928;2023-02-11T01:49:27;7.60;99.90
14172;DHT22;7165;52.388;4.928;2023-02-11T01:51:59;7.60;99.90
14172;DHT22;7165;52.388;4.928;2023-02-11T01:54:30;7.60;99.90
14172;DHT22;7165;52.388;4.928;2023-02-11T01:57:18;7.60;99.90
14172;DHT22;7165;52.388;4.928;2023-02-11T02:00:00;7.60;99.90
14172;DHT22;7165;52.388;4.928;2023-02-11T02:02:31;7.60;99.90
14172;DHT22;7165;52.388;4.928;2023-02-11T02:05:04;7.50;99.90
14172;DHT22;7165;52.388;4.928;2023-02-11T02:07:38;7.50;99.90
14172;DHT22;7165;52.388;4.928;2023-02-11T02:10:12;7.50;99.90
14172;DHT22;7165;52.388;4.928;2023-02-11T02:12:39;7.50;99.90
14172;DHT22;7165;52.388;4.928;2023-02-11T02:15:20;7.50;99.90
14172;DHT22;7165;52.388;4.928;2023-02-11T02:17:54;7.50;99.90
14172;DHT22;7165;52.388;4.928;2023-02-11T02:20:38;7.50;99.90
14172;DHT22;7165;52.388;4.928;2023-02-11T02:23:29;7.50;99.90
14172;DHT22;7165;52.388;4.928;2023-02-11T02:26:18;7.50;99.90
14172;DHT22;7165;52.388;4.928;2023-02-11T02:29:19;7.40;99.90
14172;DHT22;7165;52.388;4.928;2023-02-11T02:32:12;7.40;99.90
14172;DHT22;7165;52.388;4.928;2023-02-11T02:34:46;7.40;99.90
14172;DHT22;7165;52.388;4.928;2023-02-11T02:37:18;7.30;99.90
14172;DHT22;7165;52.388;4.928;2023-02-11T02:39:49;7.30;99.90
14172;DHT22;7165;52.388;4.928;2023-02-11T02:42:17;7.30;99.90
14172;DHT22;7165;52.388;4.928;2023-02-11T02:44:47;7.30;99.90
14172;DHT22;7165;52.388;4.928;2023-02-11T02:47:16;7.30;99.90
14172;DHT22;7165;52.388;4.928;2023-02-11T02:49:42;7.30;99.90
14172;DHT22;7165;52.388;4.928;2023-02-11T02:52:25;7.30;99.90
14172;DHT22;7165;52.388;4.928;2023-02-11T02:55:14;7.20;99.90
14172;DHT22;7165;52.388;4.928;2023-02-11T02:58:03;7.20;99.90
14172;DHT22;7165;52.388;4.928;2023-02-11T03:00:34;7.20;99.90
14172;DHT22;7165;52.388;4.928;2023-02-11T03:03:14;7.20;99.90
14172;DHT22;7165;52.388;4.928;2023-02-11T03:05:48;7.20;99.90
14172;DHT22;7165;52.388;4.928;2023-02-11T03:08:24;7.20;99.90
14172;DHT22;7165;52.388;4.928;2023-02-11T03:10:53;7.20;99.90
14172;DHT22;7165;52.388;4.928;2023-02-11T03:13:25;7.20;99.90
14172;DHT22;7165;52.388;4.928;2023-02-11T03:15:55;7.20;99.90
14172;DHT22;7165;52.388;4.928;2023-02-11T03:18:27;7.20;99.90
14172;DHT22;7165;52.388;4.928;2023-02-11T03:20:55;7.20;99.90
14172;DHT22;7165;52.388;4.928;2023-02-11T03:23:27;7.20;99.90
14172;DHT22;7165;52.388;4.928;2023-02-11T03:25:57;7.20;99.90
14172;DHT22;7165;52.388;4.928;2023-02-11T03:28:29;7.20;99.90
14172;DHT22;7165;52.388;4.928;2023-02-11T03:31:07;7.10;99.90
14172;DHT22;7165;52.388;4.928;2023-02-11T03:33:40;7.20;99.90
14172;DHT22;7165;52.388;4.928;2023-02-11T03:36:11;7.20;99.90
14172;DHT22;7165;52.388;4.928;2023-02-11T03:38:45;7.20;99.90
14172;DHT22;7165;52.388;4.928;2023-02-11T03:41:14;7.20;99.90
14172;DHT22;7165;52.388;4.928;2023-02-11T03:43:44;7.20;99.90
14172;DHT22;7165;52.388;4.928;2023-02-11T03:46:13;7.30;99.90
14172;DHT22;7165;52.388;4.928;2023-02-11T03:48:45;7.30;99.90
14172;DHT22;7165;52.388;4.928;2023-02-11T03:51:15;7.30;99.90
14172;DHT22;7165;52.388;4.928;2023-02-11T03:53:44;7.30;99.90
14172;DHT22;7165;52.388;4.928;2023-02-11T03:56:15;7.30;99.90
14172;DHT22;7165;52.388;4.928;2023-02-11T03:58:43;7.30;99.90
14172;DHT22;7165;52.388;4.928;2023-02-11T04:01:10;7.30;99.90
14172;DHT22;7165;52.388;4.928;2023-02-11T04:03:37;7.40;99.90
14172;DHT22;7165;52.388;4.928;2023-02-11T04:06:05;7.40;99.90
14172;DHT22;7165;52.388;4.928;2023-02-11T04:08:32;7.40;99.90
14172;DHT22;7165;52.388;4.928;2023-02-11T04:10:59;7.40;99.90
14172;DHT22;7165;52.388;4.928;2023-02-11T04:13:26;7.40;99.90
14172;DHT22;7165;52.388;4.928;2023-02-11T04:15:53;7.40;99.90
14172;DHT22;7165;52.388;4.928;2023-02-11T04:18:19;7.50;99.90
14172;DHT22;7165;52.388;4.928;2023-02-11T04:20:47;7.50;99.90
14172;DHT22;7165;52.388;4.928;2023-02-11T04:23:15;7.50;99.90
14172;DHT22;7165;52.388;4.928;2023-02-11T04:25:42;7.50;99.90
14172;DHT22;7165;52.388;4.928;2023-02-11T04:28:09;7.50;99.90
14172;DHT22;7165;52.388;4.928;2023-02-11T04:30:36;7.50;99.90
14172;DHT22;7165;52.388;4.928;2023-02-11T04:33:02;7.50;99.90
14172;DHT22;7165;52.388;4.928;2023-02-11T04:35:29;7.50;99.90
14172;DHT22;7165;52.388;4.928;2023-02-11T04:37:56;7.60;99.90
14172;DHT22;7165;52.388;4.928;2023-02-11T04:40:24;7.60;99.90
14172;DHT22;7165;52.388;4.928;2023-02-11T04:42:50;7.60;99.90
14172;DHT22;7165;52.388;4.928;2023-02-11T04:45:17;7.60;99.90
14172;DHT22;7165;52.388;4.928;2023-02-11T04:47:44;7.60;99.90
14172;DHT22;7165;52.388;4.928;2023-02-11T04:50:11;7.60;99.90
14172;DHT22;7165;52.388;4.928;2023-02-11T04:52:37;7.70;99.90
14172;DHT22;7165;52.388;4.928;2023-02-11T04:55:05;7.70;99.90
14172;DHT22;7165;52.388;4.928;2023-02-11T04:57:33;7.70;99.90
14172;DHT22;7165;52.388;4.928;2023-02-11T04:59:59;7.70;99.90
14172;DHT22;7165;52.388;4.928;2023-02-11T05:02:26;7.70;99.90
14172;DHT22;7165;52.388;4.928;2023-02-11T05:04:53;7.70;99.90
14172;DHT22;7165;52.388;4.928;2023-02-11T05:07:20;7.70;99.90
14172;DHT22;7165;52.388;4.928;2023-02-11T05:09:46;7.80;99.90
14172;DHT22;7165;52.388;4.928;2023-02-11T05:12:14;7.80;99.90
14172;DHT22;7165;52.388;4.928;2023-02-11T05:14:42;7.80;99.90
14172;DHT22;7165;52.388;4.928;2023-02-11T05:17:08;7.80;99.90
14172;DHT22;7165;52.388;4.928;2023-02-11T05:19:35;7.80;99.90
14172;DHT22;7165;52.388;4.928;2023-02-11T05:22:02;7.80;99.90
14172;DHT22;7165;52.388;4.928;2023-02-11T05:24:29;7.80;99.90
14172;DHT22;7165;52.388;4.928;2023-02-11T05:26:56;7.80;99.90
14172;DHT22;7165;52.388;4.928;2023-02-11T05:29:23;7.90;99.90
14172;DHT22;7165;52.388;4.928;2023-02-11T05:31:51;7.90;99.90
14172;DHT22;7165;52.388;4.928;2023-02-11T05:34:18;7.90;99.90
14172;DHT22;7165;52.388;4.928;2023-02-11T05:36:44;7.90;99.90
14172;DHT22;7165;52.388;4.928;2023-02-11T05:39:11;8.00;99.90
14172;DHT22;7165;52.388;4.928;2023-02-11T05:41:38;8.00;99.90
14172;DHT22;7165;52.388;4.928;2023-02-11T05:44:06;8.00;99.90
14172;DHT22;7165;52.388;4.928;2023-02-11T05:46:32;8.00;99.90
14172;DHT22;7165;52.388;4.928;2023-02-11T05:49:00;8.00;99.90
14172;DHT22;7165;52.388;4.928;2023-02-11T05:51:27;8.00;99.90
14172;DHT22;7165;52.388;4.928;2023-02-11T05:53:54;8.00;99.90
14172;DHT22;7165;52.388;4.928;2023-02-11T05:56:20;8.00;99.90
14172;DHT22;7165;52.388;4.928;2023-02-11T05:58:47;8.10;99.90
14172;DHT22;7165;52.388;4.928;2023-02-11T06:01:14;8.10;99.90
14172;DHT22;7165;52.388;4.928;2023-02-11T06:03:40;8.00;99.90
14172;DHT22;7165;52.388;4.928;2023-02-11T06:06:10;8.10;99.90
14172;DHT22;7165;52.388;4.928;2023-02-11T06:08:38;8.10;99.90
14172;DHT22;7165;52.388;4.928;2023-02-11T06:11:04;8.10;99.90
14172;DHT22;7165;52.388;4.928;2023-02-11T06:13:31;8.10;99.90
14172;DHT22;7165;52.388;4.928;2023-02-11T06:15:59;8.10;99.90
14172;DHT22;7165;52.388;4.928;2023-02-11T06:18:27;8.10;99.90
14172;DHT22;7165;52.388;4.928;2023-02-11T06:20:54;8.10;99.90
14172;DHT22;7165;52.388;4.928;2023-02-11T06:23:23;8.10;99.90
14172;DHT22;7165;52.388;4.928;2023-02-11T06:25:49;8.10;99.90
14172;DHT22;7165;52.388;4.928;2023-02-11T06:28:16;8.10;99.90
14172;DHT22;7165;52.388;4.928;2023-02-11T06:30:43;8.10;99.90
14172;DHT22;7165;52.388;4.928;2023-02-11T06:33:10;8.10;99.90
14172;DHT22;7165;52.388;4.928;2023-02-11T06:35:37;8.10;99.90
14172;DHT22;7165;52.388;4.928;2023-02-11T06:38:04;8.10;99.90
14172;DHT22;7165;52.388;4.928;2023-02-11T06:40:32;8.00;99.90
14172;DHT22;7165;52.388;4.928;2023-02-11T06:42:59;8.00;99.90
14172;DHT22;7165;52.388;4.928;2023-02-11T06:45:26;8.00;99.90
14172;DHT22;7165;52.388;4.928;2023-02-11T06:47:52;8.00;99.90
14172;DHT22;7165;52.388;4.928;2023-02-11T06:50:19;8.00;99.90
14172;DHT22;7165;52.388;4.928;2023-02-11T06:52:46;8.00;99.90
14172;DHT22;7165;52.388;4.928;2023-02-11T06:55:13;8.00;99.90
14172;DHT22;7165;52.388;4.928;2023-02-11T06:57:41;8.00;99.90
14172;DHT22;7165;52.388;4.928;2023-02-11T07:00:09;7.90;99.90
14172;DHT22;7165;52.388;4.928;2023-02-11T07:02:36;7.90;99.90
14172;DHT22;7165;52.388;4.928;2023-02-11T07:05:04;7.90;99.90
14172;DHT22;7165;52.388;4.928;2023-02-11T07:07:31;7.90;99.90
14172;DHT22;7165;52.388;4.928;2023-02-11T07:09:58;7.80;99.90
14172;DHT22;7165;52.388;4.928;2023-02-11T07:12:25;7.80;99.90
14172;DHT22;7165;52.388;4.928;2023-02-11T07:14:54;7.80;99.90
14172;DHT22;7165;52.388;4.928;2023-02-11T07:17:21;7.80;99.90
14172;DHT22;7165;52.388;4.928;2023-02-11T07:19:48;7.80;99.90
14172;DHT22;7165;52.388;4.928;2023-02-11T07:22:14;7.80;99.90
14172;DHT22;7165;52.388;4.928;2023-02-11T07:24:41;7.80;99.90
14172;DHT22;7165;52.388;4.928;2023-02-11T07:27:08;7.80;99.90
14172;DHT22;7165;52.388;4.928;2023-02-11T07:29:34;7.70;99.90
14172;DHT22;7165;52.388;4.928;2023-02-11T07:32:03;7.80;99.90
14172;DHT22;7165;52.388;4.928;2023-02-11T07:34:31;7.80;99.90
14172;DHT22;7165;52.388;4.928;2023-02-11T07:36:57;7.80;99.90
14172;DHT22;7165;52.388;4.928;2023-02-11T07:39:24;7.80;99.90
14172;DHT22;7165;52.388;4.928;2023-02-11T07:41:51;7.80;99.90
14172;DHT22;7165;52.388;4.928;2023-02-11T07:44:18;7.80;99.90
14172;DHT22;7165;52.388;4.928;2023-02-11T07:46:45;7.80;99.90
14172;DHT22;7165;52.388;4.928;2023-02-11T07:49:15;7.80;99.90
14172;DHT22;7165;52.388;4.928;2023-02-11T07:51:42;7.80;99.90
14172;DHT22;7165;52.388;4.928;2023-02-11T07:54:10;7.80;99.90
14172;DHT22;7165;52.388;4.928;2023-02-11T07:56:36;7.90;99.90
14172;DHT22;7165;52.388;4.928;2023-02-11T07:59:03;7.90;99.90
14172;DHT22;7165;52.388;4.928;2023-02-11T08:01:30;7.90;99.90
14172;DHT22;7165;52.388;4.928;2023-02-11T08:03:58;7.90;99.90
14172;DHT22;7165;52.388;4.928;2023-02-11T08:06:28;7.90;99.90
14172;DHT22;7165;52.388;4.928;2023-02-11T08:08:55;8.00;99.90
14172;DHT22;7165;52.388;4.928;2023-02-11T08:11:24;8.00;99.90
14172;DHT22;7165;52.388;4.928;2023-02-11T08:13:51;8.00;99.90
14172;DHT22;7165;52.388;4.928;2023-02-11T08:16:20;8.00;99.90
14172;DHT22;7165;52.388;4.928;2023-02-11T08:18:47;8.10;99.90
14172;DHT22;7165;52.388;4.928;2023-02-11T08:21:14;8.10;99.90
14172;DHT22;7165;52.388;4.928;2023-02-11T08:23:43;8.10;99.90
14172;DHT22;7165;52.388;4.928;2023-02-11T08:26:12;8.20;99.90
14172;DHT22;7165;52.388;4.928;2023-02-11T08:28:40;8.20;99.90
14172;DHT22;7165;52.388;4.928;2023-02-11T08:31:09;8.20;99.90
14172;DHT22;7165;52.388;4.928;2023-02-11T08:33:37;8.20;99.90
14172;DHT22;7165;52.388;4.928;2023-02-11T08:36:07;8.20;99.90
14172;DHT22;7165;52.388;4.928;2023-02-11T08:38:34;8.30;99.90
14172;DHT22;7165;52.388;4.928;2023-02-11T08:41:03;8.30;99.90
14172;DHT22;7165;52.388;4.928;2023-02-11T08:43:29;8.30;99.90
14172;DHT22;7165;52.388;4.928;2023-02-11T08:45:57;8.30;99.90
14172;DHT22;7165;52.388;4.928;2023-02-11T08:48:24;8.40;99.90
14172;DHT22;7165;52.388;4.928;2023-02-11T08:50:53;8.40;99.90
14172;DHT22;7165;52.388;4.928;2023-02-11T08:53:19;8.40;99.90
14172;DHT22;7165;52.388;4.928;2023-02-11T08:55:49;8.40;99.90
14172;DHT22;7165;52.388;4.928;2023-02-11T08:58:17;8.40;99.90
14172;DHT22;7165;52.388;4.928;2023-02-11T09:00:44;8.50;99.90
14172;DHT22;7165;52.388;4.928;2023-02-11T09:03:11;8.50;99.90
14172;DHT22;7165;52.388;4.928;2023-02-11T09:05:40;8.50;99.90
14172;DHT22;7165;52.388;4.928;2023-02-11T09:08:07;8.50;99.90
14172;DHT22;7165;52.388;4.928;2023-02-11T09:10:34;8.60;99.90
14172;DHT22;7165;52.388;4.928;2023-02-11T09:13:00;8.60;99.90
14172;DHT22;7165;52.388;4.928;2023-02-11T09:15:29;8.70;99.90
14172;DHT22;7165;52.388;4.928;2023-02-11T09:17:56;8.70;99.90
14172;DHT22;7165;52.388;4.928;2023-02-11T09:20:23;8.80;99.90
14172;DHT22;7165;52.388;4.928;2023-02-11T09:22:51;8.80;99.90
14172;DHT22;7165;52.388;4.928;2023-02-11T09:25:19;8.80;99.90
14172;DHT22;7165;52.388;4.928;2023-02-11T09:27:45;8.80;99.90
14172;DHT22;7165;52.388;4.928;2023-02-11T09:30:12;8.90;99.90
14172;DHT22;7165;52.388;4.928;2023-02-11T09:32:40;8.90;99.90
14172;DHT22;7165;52.388;4.928;2023-02-11T09:35:07;8.90;99.90
14172;DHT22;7165;52.388;4.928;2023-02-11T09:37:34;9.00;99.90
14172;DHT22;7165;52.388;4.928;2023-02-11T09:40:00;9.00;99.90
14172;DHT22;7165;52.388;4.928;2023-02-11T09:42:41;9.00;99.90
14172;DHT22;7165;52.388;4.928;2023-02-11T09:45:12;9.10;99.90
14172;DHT22;7165;52.388;4.928;2023-02-11T09:47:48;9.10;99.90
14172;DHT22;7165;52.388;4.928;2023-02-11T09:50:21;9.10;99.90
14172;DHT22;7165;52.388;4.928;2023-02-11T09:52:53;9.20;99.90
14172;DHT22;7165;52.388;4.928;2023-02-11T09:55:25;9.20;99.90
14172;DHT22;7165;52.388;4.928;2023-02-11T09:57:53;9.20;99.90
14172;DHT22;7165;52.388;4.928;2023-02-11T10:00:23;9.20;99.90
14172;DHT22;7165;52.388;4.928;2023-02-11T10:06:15;9.20;99.90
14172;DHT22;7165;52.388;4.928;2023-02-11T10:08:54;9.20;99.90
14172;DHT22;7165;52.388;4.928;2023-02-11T10:11:30;9.30;99.90
14172;DHT22;7165;52.388;4.928;2023-02-11T10:14:07;9.30;99.90
14172;DHT22;7165;52.388;4.928;2023-02-11T10:16:47;9.40;99.90
14172;DHT22;7165;52.388;4.928;2023-02-11T10:19:42;9.50;99.90
14172;DHT22;7165;52.388;4.928;2023-02-11T10:22:16;9.50;99.90
14172;DHT22;7165;52.388;4.928;2023-02-11T10:24:50;9.60;99.90
14172;DHT22;7165;52.388;4.928;2023-02-11T10:27:20;9.70;99.90
14172;DHT22;7165;52.388;4.928;2023-02-11T10:29:49;9.80;99.90
14172;DHT22;7165;52.388;4.928;2023-02-11T10:32:28;9.80;99.90
14172;DHT22;7165;52.388;4.928;2023-02-11T10:35:01;9.80;99.90
14172;DHT22;7165;52.388;4.928;2023-02-11T10:37:28;9.90;99.90
14172;DHT22;7165;52.388;4.928;2023-02-11T10:39:55;9.90;99.90
14172;DHT22;7165;52.388;4.928;2023-02-11T10:42:22;9.90;99.90
14172;DHT22;7165;52.388;4.928;2023-02-11T10:44:56;9.90;99.90
14172;DHT22;7165;52.388;4.928;2023-02-11T10:47:27;9.90;99.90
14172;DHT22;7165;52.388;4.928;2023-02-11T10:49:58;9.90;99.90
14172;DHT22;7165;52.388;4.928;2023-02-11T10:52:28;9.90;99.90
14172;DHT22;7165;52.388;4.928;2023-02-11T10:54:59;9.90;99.90
14172;DHT22;7165;52.388;4.928;2023-02-11T10:57:29;9.90;99.90
14172;DHT22;7165;52.388;4.928;2023-02-11T10:59:59;9.90;99.90
14172;DHT22;7165;52.388;4.928;2023-02-11T11:02:29;9.90;99.90
14172;DHT22;7165;52.388;4.928;2023-02-11T11:05:03;9.90;99.90
14172;DHT22;7165;52.388;4.928;2023-02-11T11:07:32;10.00;99.90
14172;DHT22;7165;52.388;4.928;2023-02-11T11:10:02;10.10;99.90
14172;DHT22;7165;52.388;4.928;2023-02-11T11:12:33;10.20;99.90
14172;DHT22;7165;52.388;4.928;2023-02-11T11:15:12;10.30;99.90
14172;DHT22;7165;52.388;4.928;2023-02-11T11:17:40;10.40;99.90
14172;DHT22;7165;52.388;4.928;2023-02-11T11:20:20;10.40;99.90
14172;DHT22;7165;52.388;4.928;2023-02-11T11:22:47;10.40;99.90
14172;DHT22;7165;52.388;4.928;2023-02-11T11:25:22;10.50;99.90
14172;DHT22;7165;52.388;4.928;2023-02-11T11:27:50;10.50;99.90
14172;DHT22;7165;52.388;4.928;2023-02-11T11:30:18;10.50;99.90
14172;DHT22;7165;52.388;4.928;2023-02-11T11:32:45;10.50;99.90
14172;DHT22;7165;52.388;4.928;2023-02-11T11:35:26;10.60;99.90
14172;DHT22;7165;52.388;4.928;2023-02-11T11:37:55;10.60;99.90
14172;DHT22;7165;52.388;4.928;2023-02-11T11:40:24;10.50;99.90
14172;DHT22;7165;52.388;4.928;2023-02-11T11:43:06;10.60;99.90
14172;DHT22;7165;52.388;4.928;2023-02-11T11:45:39;10.40;99.90
14172;DHT22;7165;52.388;4.928;2023-02-11T11:48:21;10.30;99.90
14172;DHT22;7165;52.388;4.928;2023-02-11T11:50:52;10.40;99.90
14172;DHT22;7165;52.388;4.928;2023-02-11T11:53:23;10.50;99.90
14172;DHT22;7165;52.388;4.928;2023-02-11T11:55:56;10.60;99.90
14172;DHT22;7165;52.388;4.928;2023-02-11T11:58:26;10.70;99.90
14172;DHT22;7165;52.388;4.928;2023-02-11T12:00:58;10.80;99.90
14172;DHT22;7165;52.388;4.928;2023-02-11T12:03:53;10.80;99.90
14172;DHT22;7165;52.388;4.928;2023-02-11T12:06:38;10.80;99.90
14172;DHT22;7165;52.388;4.928;2023-02-11T12:09:15;10.90;99.90
14172;DHT22;7165;52.388;4.928;2023-02-11T12:12:01;10.90;99.90
14172;DHT22;7165;52.388;4.928;2023-02-11T12:14:38;10.90;99.90
14172;DHT22;7165;52.388;4.928;2023-02-11T12:17:16;10.90;99.90
14172;DHT22;7165;52.388;4.928;2023-02-11T12:19:53;11.00;99.90
14172;DHT22;7165;52.388;4.928;2023-02-11T12:22:34;11.10;99.90
14172;DHT22;7165;52.388;4.928;2023-02-11T12:25:16;11.20;99.90
14172;DHT22;7165;52.388;4.928;2023-02-11T12:27:49;11.10;99.90
14172;DHT22;7165;52.388;4.928;2023-02-11T12:30:33;11.20;99.90
14172;DHT22;7165;52.388;4.928;2023-02-11T12:33:08;11.20;99.90
14172;DHT22;7165;52.388;4.928;2023-02-11T12:35:45;11.30;99.90
14172;DHT22;7165;52.388;4.928;2023-02-11T12:38:42;11.20;99.90
14172;DHT22;7165;52.388;4.928;2023-02-11T12:41:22;11.40;99.90
14172;DHT22;7165;52.388;4.928;2023-02-11T12:44:13;11.60;99.90
14172;DHT22;7165;52.388;4.928;2023-02-11T12:46:44;11.70;99.90
14172;DHT22;7165;52.388;4.928;2023-02-11T12:49:36;11.70;99.90
14172;DHT22;7165;52.388;4.928;2023-02-11T12:52:21;11.90;99.90
14172;DHT22;7165;52.388;4.928;2023-02-11T12:54:55;12.00;99.90
14172;DHT22;7165;52.388;4.928;2023-02-11T12:57:25;12.10;99.90
14172;DHT22;7165;52.388;4.928;2023-02-11T12:59:57;12.20;99.90
14172;DHT22;7165;52.388;4.928;2023-02-11T13:02:32;12.30;99.90
14172;DHT22;7165;52.388;4.928;2023-02-11T13:05:04;12.30;99.90
14172;DHT22;7165;52.388;4.928;2023-02-11T13:07:36;12.30;99.90
14172;DHT22;7165;52.388;4.928;2023-02-11T13:10:21;12.30;99.90
14172;DHT22;7165;52.388;4.928;2023-02-11T13:12:51;12.20;99.90
14172;DHT22;7165;52.388;4.928;2023-02-11T13:15:38;12.10;99.90
14172;DHT22;7165;52.388;4.928;2023-02-11T13:18:15;12.10;99.90
14172;DHT22;7165;52.388;4.928;2023-02-11T13:20:46;12.10;99.90
14172;DHT22;7165;52.388;4.928;2023-02-11T13:23:25;12.10;99.90
14172;DHT22;7165;52.388;4.928;2023-02-11T13:26:02;12.00;99.90
14172;DHT22;7165;52.388;4.928;2023-02-11T13:28:43;12.00;99.90
14172;DHT22;7165;52.388;4.928;2023-02-11T13:31:11;12.00;99.90
14172;DHT22;7165;52.388;4.928;2023-02-11T13:33:40;11.90;99.90
14172;DHT22;7165;52.388;4.928;2023-02-11T13:36:17;11.90;99.90
14172;DHT22;7165;52.388;4.928;2023-02-11T13:38:58;12.00;99.90
14172;DHT22;7165;52.388;4.928;2023-02-11T13:41:30;12.00;99.90
14172;DHT22;7165;52.388;4.928;2023-02-11T13:44:03;12.00;99.90
14172;DHT22;7165;52.388;4.928;2023-02-11T13:46:46;12.00;99.90
14172;DHT22;7165;52.388;4.928;2023-02-11T13:49:19;12.00;99.90
14172;DHT22;7165;52.388;4.928;2023-02-11T13:51:47;11.90;99.90
14172;DHT22;7165;52.388;4.928;2023-02-11T13:54:21;12.00;99.90
14172;DHT22;7165;52.388;4.928;2023-02-11T13:57:26;12.10;99.90
14172;DHT22;7165;52.388;4.928;2023-02-11T13:59:54;12.10;99.90
14172;DHT22;7165;52.388;4.928;2023-02-11T14:02:27;12.00;99.90
14172;DHT22;7165;52.388;4.928;2023-02-11T14:05:27;12.00;99.90
14172;DHT22;7165;52.388;4.928;2023-02-11T14:08:21;11.90;99.90
14172;DHT22;7165;52.388;4.928;2023-02-11T14:11:08;11.90;99.90
14172;DHT22;7165;52.388;4.928;2023-02-11T14:14:02;12.00;99.90
14172;DHT22;7165;52.388;4.928;2023-02-11T14:19:50;12.00;99.90
14172;DHT22;7165;52.388;4.928;2023-02-11T14:22:22;12.00;99.90
14172;DHT22;7165;52.388;4.928;2023-02-11T14:24:55;11.90;99.90
14172;DHT22;7165;52.388;4.928;2023-02-11T14:27:41;11.80;99.90
14172;DHT22;7165;52.388;4.928;2023-02-11T14:30:30;11.80;99.90
14172;DHT22;7165;52.388;4.928;2023-02-11T14:35:59;11.80;99.90
14172;DHT22;7165;52.388;4.928;2023-02-11T14:38:38;11.70;99.90
14172;DHT22;7165;52.388;4.928;2023-02-11T14:41:09;11.80;99.90
14172;DHT22;7165;52.388;4.928;2023-02-11T14:43:39;11.70;99.90
14172;DHT22;7165;52.388;4.928;2023-02-11T14:46:07;11.70;99.90
14172;DHT22;7165;52.388;4.928;2023-02-11T14:48:36;11.70;99.90
14172;DHT22;7165;52.388;4.928;2023-02-11T14:51:08;11.50;99.90
14172;DHT22;7165;52.388;4.928;2023-02-11T14:53:36;11.40;99.90
14172;DHT22;7165;52.388;4.928;2023-02-11T14:56:16;11.30;99.90
14172;DHT22;7165;52.388;4.928;2023-02-11T14:58:46;11.30;99.90
14172;DHT22;7165;52.388;4.928;2023-02-11T15:01:25;11.20;99.90
14172;DHT22;7165;52.388;4.928;2023-02-11T15:03:52;11.20;99.90
14172;DHT22;7165;52.388;4.928;2023-02-11T15:06:24;11.10;99.90
14172;DHT22;7165;52.388;4.928;2023-02-11T15:08:54;11.10;99.90
14172;DHT22;7165;52.388;4.928;2023-02-11T15:11:26;11.00;99.90
14172;DHT22;7165;52.388;4.928;2023-02-11T15:13:55;10.90;99.90
14172;DHT22;7165;52.388;4.928;2023-02-11T15:16:24;10.90;99.90
14172;DHT22;7165;52.388;4.928;2023-02-11T15:18:54;10.90;99.90
14172;DHT22;7165;52.388;4.928;2023-02-11T15:21:25;10.90;99.90
14172;DHT22;7165;52.388;4.928;2023-02-11T15:23:55;10.90;99.90
14172;DHT22;7165;52.388;4.928;2023-02-11T15:26:22;10.90;99.90
14172;DHT22;7165;52.388;4.928;2023-02-11T15:28:49;10.90;99.90
14172;DHT22;7165;52.388;4.928;2023-02-11T15:31:18;10.90;99.90
14172;DHT22;7165;52.388;4.928;2023-02-11T15:33:45;10.90;99.90
14172;DHT22;7165;52.388;4.928;2023-02-11T15:36:13;10.80;99.90
14172;DHT22;7165;52.388;4.928;2023-02-11T15:38:42;10.80;99.90
14172;DHT22;7165;52.388;4.928;2023-02-11T15:41:31;10.70;99.90
14172;DHT22;7165;52.388;4.928;2023-02-11T15:43:59;10.70;99.90
14172;DHT22;7165;52.388;4.928;2023-02-11T15:46:33;10.60;99.90
14172;DHT22;7165;52.388;4.928;2023-02-11T15:49:01;10.50;99.90
14172;DHT22;7165;52.388;4.928;2023-02-11T15:51:30;10.50;99.90
14172;DHT22;7165;52.388;4.928;2023-02-11T15:54:01;10.40;99.90
14172;DHT22;7165;52.388;4.928;2023-02-11T15:56:30;10.30;99.90
14172;DHT22;7165;52.388;4.928;2023-02-11T15:59:09;10.20;99.90
14172;DHT22;7165;52.388;4.928;2023-02-11T16:01:37;10.20;99.90
14172;DHT22;7165;52.388;4.928;2023-02-11T16:04:05;10.20;99.90
14172;DHT22;7165;52.388;4.928;2023-02-11T16:06:37;10.10;99.90
14172;DHT22;7165;52.388;4.928;2023-02-11T16:09:23;10.10;99.90
14172;DHT22;7165;52.388;4.928;2023-02-11T16:11:56;10.00;99.90
14172;DHT22;7165;52.388;4.928;2023-02-11T16:14:28;10.10;99.90
14172;DHT22;7165;52.388;4.928;2023-02-11T16:16:56;10.00;99.90
14172;DHT22;7165;52.388;4.928;2023-02-11T16:19:25;10.00;99.90
14172;DHT22;7165;52.388;4.928;2023-02-11T16:21:53;9.90;99.90
14172;DHT22;7165;52.388;4.928;2023-02-11T16:24:25;9.90;99.90
14172;DHT22;7165;52.388;4.928;2023-02-11T16:26:55;9.80;99.90
14172;DHT22;7165;52.388;4.928;2023-02-11T16:29:24;9.80;99.90
14172;DHT22;7165;52.388;4.928;2023-02-11T16:31:53;9.80;99.90
14172;DHT22;7165;52.388;4.928;2023-02-11T16:34:29;9.80;99.90
14172;DHT22;7165;52.388;4.928;2023-02-11T16:36:56;9.70;99.90